createdAt,value
2018-05-08T00:02:11.352Z,21.20
2018-05-08T00:07:14.610Z,21.10
2018-05-08T00:12:17.870Z,21.00
2018-05-08T00:17:21.108Z,20.80
2018-05-08T00:22:25.142Z,20.80
2018-05-08T00:27:28.408Z,20.70
2018-05-08T00:32:31.851Z,20.80
2018-05-08T00:37:35.095Z,20.70
2018-05-08T00:42:38.371Z,20.60
2018-05-08T00:47:41.649Z,20.50
2018-05-08T00:52:44.906Z,20.50
2018-05-08T00:57:48.170Z,20.40
2018-05-08T01:02:51.425Z,20.40
2018-05-08T01:07:54.692Z,20.30
2018-05-08T01:12:57.943Z,20.20
2018-05-08T01:18:01.194Z,20.10
2018-05-08T01:23:04.465Z,20.10
2018-05-08T01:28:07.719Z,20.00
2018-05-08T01:33:11.002Z,20.00
2018-05-08T01:38:14.260Z,19.90
2018-05-08T01:43:18.317Z,19.80
2018-05-08T01:48:21.533Z,19.70
2018-05-08T01:53:24.792Z,19.80
2018-05-08T01:58:28.826Z,19.70
2018-05-08T02:03:32.090Z,19.60
2018-05-08T02:08:35.349Z,19.70
2018-05-08T02:13:39.360Z,19.50
2018-05-08T02:18:42.627Z,19.50
2018-05-08T02:23:45.884Z,19.50
2018-05-08T02:28:49.911Z,19.30
2018-05-08T02:33:53.191Z,19.20
2018-05-08T02:38:56.451Z,19.30
2018-05-08T02:43:59.709Z,19.30
2018-05-08T02:49:02.961Z,19.20
2018-05-08T02:54:06.226Z,19.00
2018-05-08T02:59:09.478Z,19.00
2018-05-08T03:04:12.769Z,19.00
2018-05-08T03:09:16.794Z,18.80
2018-05-08T03:14:20.064Z,18.70
2018-05-08T03:19:23.317Z,18.60
2018-05-08T03:24:26.568Z,18.40
2018-05-08T03:29:29.850Z,18.50
2018-05-08T03:34:33.132Z,18.70
2018-05-08T03:39:36.417Z,18.70
2018-05-08T03:44:39.684Z,18.70
2018-05-08T03:49:42.952Z,18.60
2018-05-08T03:54:46.996Z,18.40
2018-05-08T03:59:51.934Z,18.40
2018-05-08T04:05:07.303Z,18.40
2018-05-08T04:10:10.608Z,18.50
2018-05-08T04:15:13.864Z,18.40
2018-05-08T04:20:17.120Z,18.50
2018-05-08T04:25:20.424Z,18.50
2018-05-08T04:30:24.476Z,18.40
2018-05-08T04:35:27.891Z,18.10
2018-05-08T04:40:31.936Z,18.40
2018-05-08T04:45:35.199Z,18.40
2018-05-08T04:50:38.443Z,18.70
2018-05-08T04:55:42.488Z,19.10
2018-05-08T05:00:45.747Z,19.00
2018-05-08T05:05:49.040Z,18.90
2018-05-08T05:10:52.297Z,19.00
2018-05-08T05:15:56.329Z,19.90
2018-05-08T05:20:59.600Z,19.80
2018-05-08T05:26:02.873Z,20.20
2018-05-08T05:31:06.133Z,20.50
2018-05-08T05:36:10.175Z,20.90
2018-05-08T05:41:13.451Z,20.90
2018-05-08T05:46:16.709Z,21.00
2018-05-08T05:51:19.981Z,21.00
2018-05-08T05:56:24.022Z,22.00
2018-05-08T06:01:27.303Z,21.90
2018-05-08T06:06:30.729Z,22.30
2018-05-08T06:11:33.826Z,22.90
2018-05-08T06:16:37.097Z,23.30
2018-05-08T06:21:40.392Z,23.40
2018-05-08T06:26:43.659Z,24.10
2018-05-08T06:31:46.942Z,24.70
2018-05-08T06:36:50.245Z,25.30
2018-05-08T06:41:53.501Z,25.40
2018-05-08T06:46:56.763Z,25.60
2018-05-08T06:52:00.058Z,26.00
2018-05-08T06:57:03.329Z,26.40
2018-05-08T07:02:06.611Z,26.70
2018-05-08T07:07:09.887Z,27.30
2018-05-08T07:12:13.168Z,27.80
2018-05-08T07:17:16.448Z,28.00
2018-05-08T07:22:20.491Z,29.20
2018-05-08T07:27:23.737Z,29.00
2018-05-08T07:32:26.991Z,29.80
2018-05-08T07:37:30.287Z,29.30
2018-05-08T07:42:33.533Z,29.50
2018-05-08T07:47:36.805Z,29.90
2018-05-08T07:52:40.060Z,27.50
2018-05-08T07:57:43.312Z,28.30
2018-05-08T08:02:46.559Z,28.00
2018-05-08T08:07:49.832Z,30.00
2018-05-08T08:12:53.086Z,31.50
2018-05-08T08:17:56.327Z,30.70
2018-05-08T08:22:59.595Z,32.80
2018-05-08T08:28:02.851Z,33.40
2018-05-08T08:33:06.138Z,33.10
2018-05-08T08:38:09.420Z,33.20
2018-05-08T08:43:12.689Z,32.10
2018-05-08T08:48:15.970Z,33.60
2018-05-08T08:53:19.248Z,34.30
2018-05-08T08:58:22.501Z,34.40
2018-05-08T09:03:25.771Z,32.30
2018-05-08T09:08:29.036Z,34.30
2018-05-08T09:13:32.303Z,35.80
2018-05-08T09:18:35.552Z,34.10
2018-05-08T09:23:38.802Z,34.60
2018-05-08T09:28:42.072Z,36.40
2018-05-08T09:33:46.105Z,36.30
2018-05-08T09:38:49.423Z,36.20
2018-05-08T09:43:52.690Z,31.10
2018-05-08T09:48:55.972Z,31.90
2018-05-08T09:53:59.217Z,31.50
2018-05-08T09:59:02.468Z,31.60
2018-05-08T10:04:05.736Z,34.40
2018-05-08T10:09:09.908Z,35.10
2018-05-08T10:14:13.172Z,33.40
2018-05-08T10:19:16.485Z,33.50
2018-05-08T10:24:19.753Z,36.60
2018-05-08T10:29:23.016Z,34.70
2018-05-08T10:34:27.040Z,36.20
2018-05-08T10:39:30.331Z,36.10
2018-05-08T10:44:33.601Z,37.30
2018-05-08T10:49:37.748Z,37.00
2018-05-08T10:54:41.014Z,37.00
2018-05-08T10:59:44.944Z,32.00
2018-05-08T11:04:48.971Z,34.00
2018-05-08T11:09:52.220Z,33.90
2018-05-08T11:14:55.492Z,33.60
2018-05-08T11:19:58.771Z,35.00
2018-05-08T11:25:02.812Z,33.50
2018-05-08T11:30:06.096Z,33.40
2018-05-08T11:35:09.354Z,36.30
2018-05-08T11:40:12.624Z,32.00
2018-05-08T11:45:16.636Z,35.40
2018-05-08T11:50:20.655Z,34.50
2018-05-08T11:55:23.921Z,34.40
2018-05-08T12:00:27.167Z,39.20
2018-05-08T12:05:30.433Z,36.10
2018-05-08T12:10:33.706Z,34.20
2018-05-08T12:15:37.772Z,35.20
2018-05-08T12:20:41.028Z,35.10
2018-05-08T12:25:44.300Z,38.30
2018-05-08T12:30:47.568Z,33.40
2018-05-08T12:35:50.811Z,33.00
2018-05-08T12:40:54.088Z,36.10
2018-05-08T12:45:57.360Z,38.20
2018-05-08T12:51:00.656Z,34.40
2018-05-08T12:56:03.924Z,35.90
2018-05-08T13:01:07.198Z,35.90
2018-05-08T13:06:11.214Z,36.50
2018-05-08T13:11:14.496Z,36.50
2018-05-08T13:16:17.748Z,36.80
2018-05-08T13:21:21.061Z,37.50
2018-05-08T13:26:25.167Z,32.80
2018-05-08T13:31:28.434Z,32.70
2018-05-08T13:36:31.704Z,37.50
2018-05-08T13:41:34.976Z,36.50
2018-05-08T13:46:38.228Z,35.30
2018-05-08T13:51:42.248Z,36.10
2018-05-08T13:56:45.519Z,34.10
2018-05-08T14:01:48.766Z,33.50
2018-05-08T14:06:52.100Z,33.40
2018-05-08T14:11:55.344Z,34.30
2018-05-08T14:16:58.599Z,32.50
2018-05-08T14:22:01.851Z,35.70
2018-05-08T14:27:05.108Z,37.30
2018-05-08T14:32:08.376Z,37.10
2018-05-08T14:37:11.675Z,37.60
2018-05-08T14:42:14.968Z,32.30
2018-05-08T14:47:19.152Z,32.90
2018-05-08T14:52:23.167Z,33.30
2018-05-08T14:57:26.454Z,33.20
2018-05-08T15:02:29.715Z,33.50
2018-05-08T15:07:33.735Z,34.50
2018-05-08T15:12:36.992Z,34.40
2018-05-08T15:17:40.241Z,34.80
2018-05-08T15:22:44.260Z,32.90
2018-05-08T15:27:47.540Z,32.90
2018-05-08T15:32:50.807Z,33.40
2018-05-08T15:37:54.059Z,33.90
2018-05-08T15:42:57.411Z,30.80
2018-05-08T15:48:00.679Z,30.80
2018-05-08T15:53:03.955Z,31.50
2018-05-08T15:58:07.198Z,31.00
2018-05-08T16:03:10.460Z,32.50
2018-05-08T16:08:13.711Z,31.60
2018-05-08T16:13:17.743Z,31.20
2018-05-08T16:18:20.999Z,31.10
2018-05-08T16:23:24.275Z,30.60
2018-05-08T16:28:28.292Z,34.40
2018-05-08T16:33:31.549Z,34.20
2018-05-08T16:38:34.977Z,31.50
2018-05-08T16:43:38.228Z,32.00
2018-05-08T16:48:42.244Z,29.20
2018-05-08T16:53:45.494Z,29.10
2018-05-08T16:58:48.739Z,28.90
2018-05-08T17:03:51.999Z,28.30
2018-05-08T17:08:55.564Z,27.90
2018-05-08T17:13:58.815Z,28.10
2018-05-08T17:19:02.092Z,28.00
2018-05-08T17:24:05.352Z,27.80
2018-05-08T17:29:08.622Z,27.70
2018-05-08T17:34:12.064Z,28.10
2018-05-08T17:39:15.330Z,28.40
2018-05-08T17:44:18.952Z,28.70
2018-05-08T17:49:22.221Z,28.00
2018-05-08T17:54:25.496Z,27.70
2018-05-08T17:59:28.770Z,28.30
2018-05-08T18:04:32.028Z,28.10
2018-05-08T18:09:35.299Z,27.30
2018-05-08T18:14:38.540Z,27.60
2018-05-08T18:19:41.824Z,27.80
2018-05-08T18:24:46.027Z,28.00
2018-05-08T18:29:49.297Z,27.90
2018-05-08T18:34:52.565Z,27.40
2018-05-08T18:39:56.633Z,27.00
2018-05-08T18:44:59.920Z,26.90
2018-05-08T18:50:03.199Z,26.80
2018-05-08T18:55:06.468Z,26.70
2018-05-08T19:00:15.453Z,26.80
2018-05-08T19:05:18.698Z,26.50
2018-05-08T19:10:21.971Z,26.00
2018-05-08T19:15:30.979Z,26.50
2018-05-08T19:20:34.290Z,26.60
2018-05-08T19:25:37.560Z,26.30
2018-05-08T19:30:40.872Z,26.10
2018-05-08T19:35:50.829Z,26.20
2018-05-08T19:40:54.345Z,25.90
2018-05-08T19:45:57.632Z,25.50
2018-05-08T19:51:00.927Z,25.30
2018-05-08T19:56:04.189Z,25.40
2018-05-08T20:01:07.450Z,25.80
2018-05-08T20:06:10.715Z,26.00
2018-05-08T20:11:13.996Z,26.00
2018-05-08T20:16:17.286Z,24.50
2018-05-08T20:21:21.713Z,24.30
2018-05-08T20:26:25.755Z,24.80
2018-05-08T20:31:29.088Z,24.80
2018-05-08T20:36:32.341Z,24.00
2018-05-08T20:41:35.636Z,23.50
2018-05-08T20:46:38.893Z,23.20
2018-05-08T20:51:42.181Z,22.90
2018-05-08T20:56:46.214Z,21.80
2018-05-08T21:01:49.501Z,21.70
2018-05-08T21:06:52.778Z,21.70
2018-05-08T21:11:56.055Z,22.20
2018-05-08T21:16:59.332Z,22.90
2018-05-08T21:22:02.600Z,22.70
2018-05-08T21:27:05.891Z,22.00
2018-05-08T21:32:09.150Z,21.60
2018-05-08T21:37:12.432Z,21.40
2018-05-08T21:42:15.722Z,21.50
2018-05-08T21:47:19.008Z,21.50
2018-05-08T21:52:23.027Z,21.60
2018-05-08T21:57:26.347Z,21.50
2018-05-08T22:02:29.651Z,21.70
2018-05-08T22:07:32.908Z,21.80
2018-05-08T22:12:36.164Z,21.80
2018-05-08T22:17:39.444Z,21.80
2018-05-08T22:22:42.723Z,21.70
2018-05-08T22:27:46.761Z,21.60
2018-05-08T22:32:50.017Z,21.50
2018-05-08T22:37:53.311Z,21.50
2018-05-08T22:42:56.572Z,21.40
2018-05-08T22:47:59.843Z,21.30
2018-05-08T22:53:03.128Z,21.40
2018-05-08T22:58:06.388Z,21.30
2018-05-08T23:03:12.893Z,21.20
2018-05-08T23:08:16.139Z,21.10
2018-05-08T23:13:19.411Z,21.10
2018-05-08T23:18:22.656Z,20.90
2018-05-08T23:23:26.702Z,20.70
2018-05-08T23:28:29.965Z,20.60
2018-05-08T23:33:33.235Z,20.60
2018-05-08T23:38:36.507Z,20.50
2018-05-08T23:43:40.549Z,20.40
2018-05-08T23:48:44.628Z,20.30
2018-05-08T23:53:47.916Z,20.30
2018-05-08T23:58:51.180Z,20.30
